createdAt,value
2019-02-02T12:36:48.807Z,16.87
2019-02-02T19:39:30.301Z,16.45
2019-02-02T19:41:58.452Z,16.82
2019-02-02T19:44:26.909Z,17.12
2019-02-02T19:46:55.335Z,17.40
2019-02-02T19:49:23.774Z,17.15
2019-02-02T19:51:52.141Z,16.87
2019-02-02T19:54:20.492Z,17.12
2019-02-02T19:56:48.608Z,17.80
2019-02-02T19:59:16.906Z,17.85
2019-02-02T20:01:45.301Z,17.30
2019-02-02T20:04:13.522Z,17.37
2019-02-02T20:06:41.895Z,17.57
2019-02-02T20:09:10.306Z,17.37
2019-02-02T20:11:38.677Z,17.92
2019-02-02T20:14:07.036Z,17.52
2019-02-02T20:16:35.168Z,18.62
2019-02-02T20:19:03.507Z,18.02
2019-02-02T20:21:31.935Z,18.45
2019-02-02T20:24:00.299Z,18.50
2019-02-02T20:26:28.681Z,18.17
2019-02-02T20:28:56.853Z,18.50
2019-02-02T20:31:25.066Z,18.52
2019-02-02T20:33:53.126Z,18.45
2019-02-02T20:36:21.526Z,18.43
2019-02-02T20:38:50.750Z,18.70
2019-02-02T20:41:19.127Z,18.45
2019-02-02T20:43:47.261Z,18.73
2019-02-02T20:46:15.651Z,18.65
2019-02-02T20:48:43.770Z,17.98
2019-02-02T20:51:11.943Z,18.35
2019-02-02T20:53:40.330Z,18.62
2019-02-02T20:56:08.741Z,18.87
2019-02-02T20:58:37.228Z,18.60
2019-02-02T21:01:05.674Z,18.50
2019-02-02T21:03:34.221Z,19.20
2019-02-02T21:06:02.359Z,18.70
2019-02-02T21:08:30.505Z,18.40
2019-02-02T21:10:58.982Z,18.57
2019-02-02T21:13:27.358Z,18.57
2019-02-02T21:15:55.810Z,18.65
2019-02-02T21:18:24.241Z,19.32
2019-02-02T21:20:52.571Z,18.80
2019-02-02T21:23:20.929Z,18.32
2019-02-02T21:25:49.105Z,18.65
2019-02-02T21:28:17.508Z,18.65
2019-02-02T21:30:46.297Z,18.17
2019-02-02T21:33:14.697Z,18.27
2019-02-02T21:35:42.846Z,18.23
2019-02-02T21:38:11.241Z,17.83
2019-02-02T21:40:39.623Z,18.20
2019-02-02T21:43:08.000Z,18.30
2019-02-02T21:45:36.905Z,18.27
2019-02-02T21:48:05.707Z,18.48
2019-02-02T21:50:33.878Z,18.23
2019-02-02T21:53:02.242Z,17.95
2019-02-02T21:55:31.210Z,18.70
2019-02-02T21:57:59.690Z,18.27
2019-02-02T22:00:39.766Z,18.48
2019-02-02T22:03:07.913Z,18.02
2019-02-02T22:05:36.320Z,18.40
2019-02-02T22:08:05.521Z,17.85
2019-02-02T22:10:33.900Z,17.67
2019-02-02T22:13:02.341Z,17.62
2019-02-02T22:15:30.718Z,17.62
2019-02-02T22:17:58.846Z,18.53
2019-02-02T22:20:27.298Z,17.77
2019-02-02T22:22:55.681Z,17.82
2019-02-02T22:25:27.626Z,17.30
2019-02-02T22:27:56.164Z,17.82
2019-02-02T22:30:30.190Z,16.87
2019-02-02T22:32:58.554Z,17.77
2019-02-02T22:35:26.938Z,17.62
2019-02-02T22:37:55.846Z,17.67
2019-02-02T22:40:24.732Z,17.00
2019-02-02T22:42:52.877Z,17.00
2019-02-02T22:45:22.177Z,17.10
2019-02-02T22:47:50.807Z,17.15
2019-02-02T22:50:27.663Z,16.62
2019-02-02T22:52:56.192Z,16.97
2019-02-02T22:55:25.094Z,17.05
2019-02-02T22:57:54.460Z,16.65
2019-02-02T23:00:52.045Z,16.48
2019-02-02T23:03:32.818Z,17.30
2019-02-02T23:06:02.799Z,15.58
2019-02-02T23:08:50.341Z,16.70
2019-02-02T23:11:20.108Z,17.32
2019-02-02T23:14:05.701Z,16.40
2019-02-02T23:16:34.656Z,16.07
2019-02-02T23:19:03.011Z,15.93
2019-02-02T23:21:31.239Z,16.52
2019-02-02T23:23:59.375Z,15.72
2019-02-02T23:26:27.816Z,15.87
2019-02-02T23:28:55.948Z,15.98
2019-02-02T23:31:24.830Z,15.72
2019-02-02T23:33:52.982Z,16.17
2019-02-02T23:36:21.427Z,16.70
2019-02-02T23:38:49.564Z,15.70
2019-02-02T23:41:18.142Z,15.85
2019-02-02T23:43:46.507Z,15.75
2019-02-02T23:46:14.843Z,15.55
2019-02-02T23:48:42.973Z,15.53
2019-02-02T23:51:11.357Z,16.02
2019-02-02T23:53:39.491Z,15.75
2019-02-02T23:56:07.858Z,15.75
2019-02-02T23:58:36.035Z,15.63
